createdAt,value
2023-04-17T00:00:59.346Z,11.18
2023-04-17T00:03:32.161Z,11.15
2023-04-17T00:06:04.667Z,11.06
2023-04-17T00:08:36.838Z,11.03
2023-04-17T00:11:09.325Z,10.97
2023-04-17T00:13:44.135Z,11.00
2023-04-17T00:16:16.354Z,11.02
2023-04-17T00:18:48.438Z,10.99
2023-04-17T00:21:20.651Z,10.94
2023-04-17T00:23:52.756Z,10.93
2023-04-17T00:26:25.468Z,10.95
2023-04-17T00:28:57.589Z,10.96
2023-04-17T00:31:29.772Z,10.99
2023-04-17T00:34:02.070Z,11.00
2023-04-17T00:36:34.222Z,10.96
2023-04-17T00:39:06.478Z,10.98
2023-04-17T00:41:38.605Z,10.96
2023-04-17T00:44:10.810Z,10.92
2023-04-17T00:46:43.206Z,10.91
2023-04-17T00:49:15.460Z,10.94
2023-04-17T00:51:47.598Z,10.88
2023-04-17T00:54:21.052Z,10.90
2023-04-17T00:56:54.745Z,10.79
2023-04-17T00:59:28.624Z,10.81
2023-04-17T01:02:01.379Z,10.80
2023-04-17T01:04:33.547Z,10.83
2023-04-17T01:07:05.817Z,10.79
2023-04-17T01:09:38.800Z,10.75
2023-04-17T01:12:25.855Z,10.74
2023-04-17T01:14:59.032Z,10.73
2023-04-17T01:17:31.477Z,10.71
2023-04-17T01:20:10.974Z,10.73
2023-04-17T01:22:43.299Z,10.74
2023-04-17T01:25:15.715Z,10.76
2023-04-17T01:27:47.868Z,10.75
2023-04-17T01:30:20.491Z,10.73
2023-04-17T01:32:56.079Z,10.76
2023-04-17T01:35:28.436Z,10.75
2023-04-17T01:38:00.637Z,10.71
2023-04-17T01:40:32.823Z,10.73
2023-04-17T01:43:04.893Z,10.74
2023-04-17T01:45:37.066Z,10.77
2023-04-17T01:48:09.230Z,10.75
2023-04-17T01:50:41.731Z,10.75
2023-04-17T01:53:13.904Z,10.68
2023-04-17T01:55:46.092Z,10.67
2023-04-17T01:58:18.251Z,10.68
2023-04-17T02:00:50.710Z,10.70
2023-04-17T02:03:24.807Z,10.73
2023-04-17T02:05:57.180Z,10.75
2023-04-17T02:08:30.074Z,10.74
2023-04-17T02:11:02.459Z,10.72
2023-04-17T02:13:34.723Z,10.74
2023-04-17T02:16:07.974Z,10.73
2023-04-17T02:18:41.119Z,10.72
2023-04-17T02:21:13.273Z,10.72
2023-04-17T02:23:45.382Z,10.68
2023-04-17T02:26:17.586Z,10.68
2023-04-17T02:28:49.777Z,10.69
2023-04-17T02:31:22.174Z,10.73
2023-04-17T02:33:54.447Z,10.72
2023-04-17T02:36:27.641Z,10.73
2023-04-17T02:38:59.903Z,10.69
2023-04-17T02:41:32.286Z,10.70
2023-04-17T02:44:04.624Z,10.67
2023-04-17T02:46:39.668Z,10.65
2023-04-17T02:49:12.013Z,10.65
2023-04-17T02:51:44.420Z,10.65
2023-04-17T02:54:16.505Z,10.66
2023-04-17T02:56:48.825Z,10.67
2023-04-17T02:59:21.078Z,10.71
2023-04-17T03:01:53.780Z,10.68
2023-04-17T03:04:28.304Z,10.63
2023-04-17T03:07:01.726Z,10.58
2023-04-17T03:09:35.211Z,10.56
2023-04-17T03:12:07.691Z,10.50
2023-04-17T03:14:39.946Z,10.45
2023-04-17T03:17:14.275Z,10.43
2023-04-17T03:19:47.188Z,10.44
2023-04-17T03:22:19.348Z,10.39
2023-04-17T03:24:51.384Z,10.41
2023-04-17T03:27:24.571Z,10.41
2023-04-17T03:29:56.778Z,10.40
2023-04-17T03:32:28.991Z,10.36
2023-04-17T03:35:01.166Z,10.32
2023-04-17T03:37:33.344Z,10.30
2023-04-17T03:40:06.801Z,10.30
2023-04-17T03:42:38.926Z,10.28
2023-04-17T03:45:11.371Z,10.26
2023-04-17T03:47:43.499Z,10.17
2023-04-17T03:50:15.706Z,10.18
2023-04-17T03:52:47.873Z,10.17
2023-04-17T03:55:20.041Z,10.15
2023-04-17T03:57:52.229Z,10.18
2023-04-17T04:00:24.788Z,10.18
2023-04-17T04:02:56.996Z,10.12
2023-04-17T04:05:29.285Z,10.12
2023-04-17T04:08:01.464Z,10.11
2023-04-17T04:10:33.719Z,10.15
2023-04-17T04:13:05.865Z,10.13
2023-04-17T04:15:38.388Z,10.12
2023-04-17T04:18:10.635Z,10.07
2023-04-17T04:20:42.701Z,10.09
2023-04-17T04:23:16.967Z,10.08
2023-04-17T04:25:49.833Z,10.12
2023-04-17T04:28:23.552Z,10.15
2023-04-17T04:30:55.674Z,10.16
2023-04-17T04:33:27.930Z,10.14
2023-04-17T04:36:01.689Z,10.15
2023-04-17T04:38:34.185Z,10.13
2023-04-17T04:41:10.483Z,10.14
2023-04-17T04:43:42.657Z,10.15
2023-04-17T04:46:14.724Z,10.17
2023-04-17T04:48:46.822Z,10.20
2023-04-17T04:51:19.535Z,10.19
2023-04-17T04:53:51.574Z,10.20
2023-04-17T04:56:23.705Z,10.19
2023-04-17T04:58:57.605Z,10.21
2023-04-17T05:01:30.016Z,10.20
2023-04-17T05:04:02.449Z,10.21
2023-04-17T05:06:34.671Z,10.22
2023-04-17T05:09:07.154Z,10.21
2023-04-17T05:11:39.332Z,10.24
2023-04-17T05:14:11.413Z,10.27
2023-04-17T05:16:43.511Z,10.28
2023-04-17T05:19:15.867Z,10.31
2023-04-17T05:21:48.141Z,10.27
2023-04-17T05:24:20.310Z,10.27
2023-04-17T05:26:53.634Z,10.29
2023-04-17T05:29:26.064Z,10.32
2023-04-17T05:31:58.258Z,10.35
2023-04-17T05:34:30.842Z,10.35
2023-04-17T05:37:03.603Z,10.38
2023-04-17T05:39:35.788Z,10.41
2023-04-17T05:42:08.483Z,10.43
2023-04-17T05:44:40.570Z,10.46
2023-04-17T05:47:13.492Z,10.51
2023-04-17T05:49:45.876Z,10.54
2023-04-17T05:52:20.366Z,10.54
2023-04-17T05:54:52.482Z,10.52
2023-04-17T05:57:24.701Z,10.61
2023-04-17T05:59:57.027Z,10.65
2023-04-17T06:02:29.393Z,10.60
2023-04-17T06:05:01.901Z,10.65
2023-04-17T06:07:34.811Z,10.72
2023-04-17T06:10:12.122Z,10.76
2023-04-17T06:14:06.304Z,10.72
2023-04-17T06:17:16.985Z,10.79
2023-04-17T06:19:58.127Z,10.89
2023-04-17T06:23:32.046Z,10.87
2023-04-17T06:36:43.554Z,11.03
2023-04-17T06:52:35.381Z,11.61
2023-04-17T07:06:29.784Z,12.16
2023-04-17T07:09:09.029Z,12.21
2023-04-17T07:15:54.270Z,12.54
2023-04-17T07:36:59.864Z,13.46
2023-04-17T08:01:17.588Z,14.88
2023-04-17T08:05:29.338Z,15.03
2023-04-17T08:20:31.027Z,20.64
2023-04-17T08:24:12.688Z,21.57
2023-04-17T08:29:51.830Z,23.33
2023-04-17T08:36:18.916Z,24.19
2023-04-17T08:39:07.228Z,23.87
2023-04-17T08:42:22.748Z,23.87
2023-04-17T08:45:02.109Z,23.77
2023-04-17T08:47:43.081Z,23.92
2023-04-17T08:50:22.100Z,24.22
2023-04-17T09:01:19.034Z,24.54
2023-04-17T09:20:22.105Z,25.99
2023-04-17T09:23:30.735Z,25.68
2023-04-17T09:50:03.963Z,23.93
2023-04-17T09:59:31.918Z,26.41
2023-04-17T10:02:16.697Z,26.98
2023-04-17T10:08:39.896Z,26.52
2023-04-17T10:11:12.949Z,26.94
2023-04-17T10:13:52.547Z,26.84
2023-04-17T10:16:39.284Z,26.66
2023-04-17T10:19:33.698Z,26.10
2023-04-17T10:22:18.527Z,25.80
2023-04-17T10:25:13.830Z,25.24
2023-04-17T10:28:01.393Z,25.28
2023-04-17T10:30:55.080Z,25.13
2023-04-17T10:33:28.228Z,25.42
2023-04-17T10:36:00.824Z,25.34
2023-04-17T10:38:37.277Z,25.63
2023-04-17T10:41:11.488Z,26.32
2023-04-17T10:43:45.556Z,27.14
2023-04-17T10:46:26.397Z,27.33
2023-04-17T10:48:59.103Z,27.88
2023-04-17T10:51:39.507Z,28.73
2023-04-17T10:54:18.377Z,29.58
2023-04-17T10:56:54.476Z,29.35
2023-04-17T11:02:16.407Z,30.62
2023-04-17T11:04:49.028Z,30.79
2023-04-17T11:07:22.306Z,30.87
2023-04-17T11:09:54.428Z,30.49
2023-04-17T11:12:26.616Z,29.71
2023-04-17T11:15:06.558Z,29.26
2023-04-17T11:17:45.789Z,29.30
2023-04-17T11:20:23.372Z,27.67
2023-04-17T11:22:56.788Z,26.59
2023-04-17T11:25:31.759Z,26.92
2023-04-17T11:28:06.873Z,28.06
2023-04-17T11:30:42.465Z,29.45
2023-04-17T11:33:16.178Z,29.42
2023-04-17T11:35:48.360Z,28.36
2023-04-17T11:38:22.848Z,28.09
2023-04-17T11:41:00.991Z,28.26
2023-04-17T11:43:37.120Z,29.11
2023-04-17T11:46:09.279Z,29.08
2023-04-17T11:48:41.429Z,28.48
2023-04-17T11:51:19.142Z,27.78
2023-04-17T11:53:52.379Z,25.73
2023-04-17T11:56:28.673Z,25.24
2023-04-17T11:59:03.923Z,24.95
2023-04-17T12:01:36.226Z,26.32
2023-04-17T12:04:21.272Z,27.93
2023-04-17T12:06:57.883Z,28.57
2023-04-17T12:09:32.852Z,27.97
2023-04-17T12:12:07.336Z,28.76
2023-04-17T12:14:39.638Z,28.70
2023-04-17T12:17:11.734Z,29.12
2023-04-17T12:19:45.317Z,29.40
2023-04-17T12:22:17.383Z,29.58
2023-04-17T12:24:49.593Z,27.87
2023-04-17T12:27:22.972Z,27.11
2023-04-17T12:29:55.110Z,26.97
2023-04-17T12:32:27.324Z,27.90
2023-04-17T12:34:59.463Z,27.19
2023-04-17T12:37:31.514Z,25.23
2023-04-17T12:40:04.299Z,24.96
2023-04-17T12:42:48.302Z,25.61
2023-04-17T12:45:21.890Z,27.30
2023-04-17T12:47:54.822Z,28.36
2023-04-17T12:50:27.324Z,29.00
2023-04-17T12:52:59.705Z,27.79
2023-04-17T12:55:32.654Z,26.18
2023-04-17T12:58:09.029Z,25.08
2023-04-17T13:39:46.751Z,23.52
2023-04-17T13:42:19.412Z,24.03
2023-04-17T13:44:51.563Z,24.64
2023-04-17T13:47:23.765Z,25.32
2023-04-17T13:49:55.873Z,24.91
2023-04-17T13:52:27.975Z,25.48
2023-04-17T13:55:00.115Z,24.67
2023-04-17T13:57:32.418Z,24.10
2023-04-17T14:00:05.150Z,24.55
2023-04-17T14:02:37.480Z,24.52
2023-04-17T14:05:10.266Z,24.28
2023-04-17T14:07:44.088Z,23.71
2023-04-17T14:10:16.165Z,23.85
2023-04-17T14:12:48.387Z,24.33
2023-04-17T14:15:21.074Z,24.46
2023-04-17T14:17:53.263Z,24.43
2023-04-17T14:20:25.823Z,23.91
2023-04-17T14:22:58.035Z,23.60
2023-04-17T14:25:30.115Z,23.80
2023-04-17T14:28:02.317Z,23.59
2023-04-17T14:30:34.351Z,23.74
2023-04-17T14:33:06.438Z,23.21
2023-04-17T14:35:40.260Z,22.45
2023-04-17T14:38:12.576Z,21.90
2023-04-17T14:40:44.704Z,21.50
2023-04-17T14:43:17.148Z,21.92
2023-04-17T14:45:49.429Z,22.33
2023-04-17T14:48:21.544Z,21.91
2023-04-17T14:50:53.730Z,21.83
2023-04-17T14:53:25.937Z,21.40
2023-04-17T14:55:59.570Z,21.09
2023-04-17T14:58:31.858Z,20.87
2023-04-17T15:01:04.873Z,20.91
2023-04-17T15:03:37.170Z,21.32
2023-04-17T15:06:09.485Z,21.54
2023-04-17T15:08:41.868Z,21.56
2023-04-17T15:11:14.140Z,21.17
2023-04-17T15:13:55.444Z,21.45
2023-04-17T15:16:27.653Z,21.51
2023-04-17T15:18:59.811Z,21.25
2023-04-17T15:21:31.965Z,20.95
2023-04-17T15:24:04.535Z,20.85
2023-04-17T15:26:36.723Z,20.89
2023-04-17T15:29:08.868Z,20.82
2023-04-17T15:31:41.122Z,20.53
2023-04-17T15:34:14.326Z,19.79
2023-04-17T15:36:48.487Z,19.06
2023-04-17T15:39:20.709Z,18.77
2023-04-17T15:41:52.778Z,18.61
2023-04-17T15:44:25.002Z,18.56
2023-04-17T15:46:57.525Z,18.66
2023-04-17T15:49:31.055Z,18.44
2023-04-17T15:52:03.150Z,18.30
2023-04-17T15:54:35.308Z,18.28
2023-04-17T15:57:07.416Z,18.15
2023-04-17T15:59:39.473Z,17.82
2023-04-17T16:02:15.373Z,17.83
2023-04-17T16:04:47.722Z,17.79
2023-04-17T16:07:20.098Z,17.71
2023-04-17T16:09:52.212Z,17.60
2023-04-17T16:12:24.313Z,17.50
2023-04-17T16:14:56.377Z,17.42
2023-04-17T16:17:28.620Z,17.37
2023-04-17T16:20:01.321Z,17.32
2023-04-17T16:22:33.541Z,17.32
2023-04-17T16:25:06.693Z,17.29
2023-04-17T16:27:40.440Z,17.18
2023-04-17T16:30:12.987Z,17.13
2023-04-17T16:32:45.719Z,16.94
2023-04-17T16:35:17.884Z,16.68
2023-04-17T16:37:50.121Z,16.57
2023-04-17T16:40:22.362Z,16.58
2023-04-17T16:42:54.455Z,16.59
2023-04-17T16:45:27.187Z,16.60
2023-04-17T16:47:59.796Z,16.37
2023-04-17T16:50:32.440Z,16.30
2023-04-17T16:53:04.933Z,16.28
2023-04-17T16:55:38.162Z,16.25
2023-04-17T16:58:10.928Z,16.15
2023-04-17T17:00:43.392Z,16.18
2023-04-17T17:03:16.110Z,16.18
2023-04-17T17:05:48.534Z,16.13
2023-04-17T17:08:37.581Z,15.99
2023-04-17T17:11:18.391Z,15.96
2023-04-17T17:13:54.734Z,15.88
2023-04-17T17:17:41.894Z,15.76
2023-04-17T17:20:20.474Z,15.58
2023-04-17T17:23:07.470Z,15.59
2023-04-17T17:29:44.275Z,15.39
2023-04-17T17:32:25.354Z,15.23
2023-04-17T17:35:07.442Z,15.11
2023-04-17T17:37:54.786Z,15.03
2023-04-17T17:40:29.487Z,14.97
2023-04-17T17:44:19.678Z,14.79
2023-04-17T17:47:09.734Z,14.70
2023-04-17T17:50:10.582Z,14.59
2023-04-17T17:57:45.753Z,14.24
2023-04-17T18:00:31.297Z,14.30
2023-04-17T18:03:42.972Z,14.22
2023-04-17T18:09:51.523Z,14.15
2023-04-17T18:13:21.466Z,14.00
2023-04-17T18:15:59.399Z,13.94
2023-04-17T18:25:32.473Z,13.57
2023-04-17T18:28:17.667Z,13.47
2023-04-17T18:30:59.928Z,13.46
2023-04-17T21:21:52.250Z,10.56
2023-04-17T23:00:42.342Z,10.45
2023-04-17T23:03:14.689Z,10.48
2023-04-17T23:05:46.947Z,10.45
2023-04-17T23:08:19.548Z,10.42
2023-04-17T23:11:02.132Z,10.38
2023-04-17T23:13:34.188Z,10.35
2023-04-17T23:16:09.641Z,10.30
2023-04-17T23:18:41.878Z,10.29
2023-04-17T23:21:14.076Z,10.24
2023-04-17T23:23:48.575Z,10.24
2023-04-17T23:26:20.805Z,10.31
2023-04-17T23:28:53.635Z,10.33
2023-04-17T23:31:25.782Z,10.41
2023-04-17T23:33:57.934Z,10.46
2023-04-17T23:36:30.779Z,10.48
2023-04-17T23:39:03.256Z,10.41
2023-04-17T23:41:35.525Z,10.40
2023-04-17T23:44:08.268Z,10.38
2023-04-17T23:46:40.581Z,10.40
2023-04-17T23:49:13.124Z,10.40
2023-04-17T23:51:45.223Z,10.35
2023-04-17T23:54:17.573Z,10.29
2023-04-17T23:56:50.082Z,10.22
